Terminal Aerodrome Forecast
Issued by NWS

Home | Current Version | Previous Version | Text Only | Print | Product List | Glossary On
Versions: 1 2 3 4 5 6 7 8 9 10 11 12 13 14 15 16 17 18 19 20
352
FTUS46 KMFR 280532
TAFOTH
TAF
KOTH 280532Z 2806/2906 04004KT P6SM SCT025
      TEMPO 2806/2807 BKN025
     FM280900 08004KT P6SM FEW015 SCT025
     FM281800 35009KT P6SM SKC
     FM282100 35017G25KT P6SM SKC
     FM290400 35010KT P6SM SCT100=

USA.gov is the U.S. government's official web portal to all federal, state and local government web resources and services.